sensor_id;sensor_type;location;lat;lon;timestamp;P1;durP1;ratioP1;P2;durP2;ratioP2
42948;SDS011;28587;46.794;23.594;2022-10-16T00:04:49;14.20;;;12.80;;
42948;SDS011;28587;46.794;23.594;2022-10-16T00:09:52;13.57;;;12.07;;
42948;SDS011;28587;46.794;23.594;2022-10-16T00:14:53;13.55;;;12.25;;
42948;SDS011;28587;46.794;23.594;2022-10-16T00:19:53;13.68;;;12.25;;
42948;SDS011;28587;46.794;23.594;2022-10-16T00:24:54;13.88;;;12.02;;
42948;SDS011;28587;46.794;23.594;2022-10-16T00:29:55;13.00;;;11.75;;
42948;SDS011;28587;46.794;23.594;2022-10-16T00:34:56;12.95;;;11.63;;
42948;SDS011;28587;46.794;23.594;2022-10-16T00:39:57;13.10;;;11.80;;
42948;SDS011;28587;46.794;23.594;2022-10-16T00:44:58;12.98;;;11.68;;
42948;SDS011;28587;46.794;23.594;2022-10-16T00:50:02;13.32;;;11.93;;
42948;SDS011;28587;46.794;23.594;2022-10-16T00:55:09;14.57;;;11.57;;
42948;SDS011;28587;46.794;23.594;2022-10-16T01:00:10;12.50;;;11.23;;
42948;SDS011;28587;46.794;23.594;2022-10-16T01:05:17;13.43;;;11.50;;
42948;SDS011;28587;46.794;23.594;2022-10-16T01:15:48;12.45;;;11.15;;
42948;SDS011;28587;46.794;23.594;2022-10-16T01:21:08;12.65;;;11.38;;
42948;SDS011;28587;46.794;23.594;2022-10-16T01:31:36;12.43;;;11.23;;
42948;SDS011;28587;46.794;23.594;2022-10-16T01:36:42;11.65;;;10.48;;
42948;SDS011;28587;46.794;23.594;2022-10-16T01:41:49;12.60;;;11.30;;
42948;SDS011;28587;46.794;23.594;2022-10-16T01:46:56;12.07;;;10.88;;
42948;SDS011;28587;46.794;23.594;2022-10-16T01:51:58;11.70;;;10.60;;
42948;SDS011;28587;46.794;23.594;2022-10-16T01:57:03;11.63;;;10.45;;
42948;SDS011;28587;46.794;23.594;2022-10-16T02:02:06;11.38;;;10.27;;
42948;SDS011;28587;46.794;23.594;2022-10-16T02:07:10;12.30;;;10.85;;
42948;SDS011;28587;46.794;23.594;2022-10-16T02:12:13;12.55;;;11.27;;
42948;SDS011;28587;46.794;23.594;2022-10-16T02:17:22;12.07;;;10.82;;
42948;SDS011;28587;46.794;23.594;2022-10-16T02:22:27;11.32;;;10.20;;
42948;SDS011;28587;46.794;23.594;2022-10-16T02:27:55;11.48;;;10.27;;
42948;SDS011;28587;46.794;23.594;2022-10-16T02:33:02;10.82;;;9.82;;
42948;SDS011;28587;46.794;23.594;2022-10-16T02:38:07;11.20;;;10.20;;
42948;SDS011;28587;46.794;23.594;2022-10-16T02:43:09;11.85;;;10.65;;
42948;SDS011;28587;46.794;23.594;2022-10-16T02:48:10;10.68;;;9.57;;
42948;SDS011;28587;46.794;23.594;2022-10-16T02:53:11;10.70;;;9.70;;
42948;SDS011;28587;46.794;23.594;2022-10-16T02:58:13;10.80;;;9.70;;
42948;SDS011;28587;46.794;23.594;2022-10-16T03:03:14;10.50;;;9.50;;
42948;SDS011;28587;46.794;23.594;2022-10-16T03:08:15;10.68;;;9.68;;
42948;SDS011;28587;46.794;23.594;2022-10-16T03:13:16;10.93;;;9.93;;
42948;SDS011;28587;46.794;23.594;2022-10-16T03:18:17;10.95;;;9.88;;
42948;SDS011;28587;46.794;23.594;2022-10-16T03:23:18;10.20;;;9.20;;
42948;SDS011;28587;46.794;23.594;2022-10-16T03:28:19;10.25;;;9.25;;
42948;SDS011;28587;46.794;23.594;2022-10-16T03:33:20;10.80;;;9.75;;
42948;SDS011;28587;46.794;23.594;2022-10-16T03:38:21;9.90;;;9.00;;
42948;SDS011;28587;46.794;23.594;2022-10-16T03:43:22;10.93;;;9.55;;
42948;SDS011;28587;46.794;23.594;2022-10-16T03:48:23;10.05;;;9.15;;
42948;SDS011;28587;46.794;23.594;2022-10-16T03:53:24;10.30;;;9.30;;
42948;SDS011;28587;46.794;23.594;2022-10-16T03:58:25;11.10;;;9.43;;
42948;SDS011;28587;46.794;23.594;2022-10-16T04:03:26;9.95;;;9.05;;
42948;SDS011;28587;46.794;23.594;2022-10-16T04:08:27;10.32;;;9.32;;
42948;SDS011;28587;46.794;23.594;2022-10-16T04:13:28;10.10;;;9.15;;
42948;SDS011;28587;46.794;23.594;2022-10-16T04:18:29;9.65;;;8.75;;
42948;SDS011;28587;46.794;23.594;2022-10-16T04:23:30;9.85;;;8.95;;
42948;SDS011;28587;46.794;23.594;2022-10-16T04:28:31;10.27;;;9.32;;
42948;SDS011;28587;46.794;23.594;2022-10-16T04:33:32;9.88;;;8.98;;
42948;SDS011;28587;46.794;23.594;2022-10-16T04:38:33;9.77;;;8.77;;
42948;SDS011;28587;46.794;23.594;2022-10-16T04:43:34;9.05;;;8.15;;
42948;SDS011;28587;46.794;23.594;2022-10-16T04:48:35;9.85;;;8.85;;
42948;SDS011;28587;46.794;23.594;2022-10-16T04:53:36;8.93;;;8.13;;
42948;SDS011;28587;46.794;23.594;2022-10-16T04:58:37;9.10;;;8.27;;
42948;SDS011;28587;46.794;23.594;2022-10-16T05:03:38;9.05;;;8.20;;
42948;SDS011;28587;46.794;23.594;2022-10-16T05:08:39;9.93;;;8.55;;
42948;SDS011;28587;46.794;23.594;2022-10-16T05:13:40;11.10;;;8.80;;
42948;SDS011;28587;46.794;23.594;2022-10-16T05:18:41;8.40;;;7.60;;
42948;SDS011;28587;46.794;23.594;2022-10-16T05:23:41;10.60;;;7.95;;
42948;SDS011;28587;46.794;23.594;2022-10-16T05:28:42;8.52;;;7.72;;
42948;SDS011;28587;46.794;23.594;2022-10-16T05:33:43;8.93;;;8.02;;
42948;SDS011;28587;46.794;23.594;2022-10-16T05:38:45;10.05;;;7.90;;
42948;SDS011;28587;46.794;23.594;2022-10-16T05:43:46;8.52;;;7.72;;
42948;SDS011;28587;46.794;23.594;2022-10-16T05:48:48;8.70;;;7.90;;
42948;SDS011;28587;46.794;23.594;2022-10-16T05:53:51;9.07;;;8.18;;
42948;SDS011;28587;46.794;23.594;2022-10-16T05:58:52;10.40;;;7.63;;
42948;SDS011;28587;46.794;23.594;2022-10-16T06:03:53;8.52;;;7.72;;
42948;SDS011;28587;46.794;23.594;2022-10-16T06:08:54;9.20;;;8.20;;
42948;SDS011;28587;46.794;23.594;2022-10-16T06:13:57;17.20;;;9.35;;
42948;SDS011;28587;46.794;23.594;2022-10-16T06:19:00;9.10;;;7.68;;
42948;SDS011;28587;46.794;23.594;2022-10-16T06:24:01;11.68;;;8.93;;
42948;SDS011;28587;46.794;23.594;2022-10-16T06:29:02;10.77;;;8.60;;
42948;SDS011;28587;46.794;23.594;2022-10-16T06:34:03;11.38;;;7.70;;
42948;SDS011;28587;46.794;23.594;2022-10-16T06:39:06;12.05;;;8.18;;
42948;SDS011;28587;46.794;23.594;2022-10-16T06:44:10;10.10;;;8.15;;
42948;SDS011;28587;46.794;23.594;2022-10-16T06:49:10;9.30;;;8.40;;
42948;SDS011;28587;46.794;23.594;2022-10-16T06:54:11;9.35;;;8.35;;
42948;SDS011;28587;46.794;23.594;2022-10-16T06:59:12;10.68;;;8.50;;
42948;SDS011;28587;46.794;23.594;2022-10-16T07:04:13;9.27;;;8.32;;
42948;SDS011;28587;46.794;23.594;2022-10-16T07:09:14;9.45;;;8.32;;
42948;SDS011;28587;46.794;23.594;2022-10-16T07:14:16;10.85;;;8.05;;
42948;SDS011;28587;46.794;23.594;2022-10-16T07:19:18;9.40;;;8.27;;
42948;SDS011;28587;46.794;23.594;2022-10-16T07:24:19;15.48;;;8.50;;
42948;SDS011;28587;46.794;23.594;2022-10-16T07:29:20;12.40;;;8.05;;
42948;SDS011;28587;46.794;23.594;2022-10-16T07:34:22;12.13;;;8.50;;
42948;SDS011;28587;46.794;23.594;2022-10-16T07:39:22;9.52;;;8.52;;
42948;SDS011;28587;46.794;23.594;2022-10-16T07:44:23;11.32;;;9.18;;
42948;SDS011;28587;46.794;23.594;2022-10-16T07:49:24;14.10;;;9.65;;
42948;SDS011;28587;46.794;23.594;2022-10-16T07:54:25;12.63;;;9.35;;
42948;SDS011;28587;46.794;23.594;2022-10-16T07:59:26;12.43;;;8.73;;
42948;SDS011;28587;46.794;23.594;2022-10-16T08:04:27;18.45;;;12.23;;
42948;SDS011;28587;46.794;23.594;2022-10-16T08:09:28;27.85;;;17.55;;
42948;SDS011;28587;46.794;23.594;2022-10-16T08:14:29;29.05;;;17.05;;
42948;SDS011;28587;46.794;23.594;2022-10-16T08:19:30;28.95;;;18.38;;
42948;SDS011;28587;46.794;23.594;2022-10-16T08:24:34;39.65;;;20.45;;
42948;SDS011;28587;46.794;23.594;2022-10-16T08:29:36;29.35;;;17.92;;
42948;SDS011;28587;46.794;23.594;2022-10-16T08:34:38;28.55;;;17.38;;
42948;SDS011;28587;46.794;23.594;2022-10-16T08:39:39;24.38;;;16.67;;
42948;SDS011;28587;46.794;23.594;2022-10-16T08:45:02;23.80;;;15.35;;
42948;SDS011;28587;46.794;23.594;2022-10-16T08:50:25;21.65;;;14.70;;
42948;SDS011;28587;46.794;23.594;2022-10-16T08:55:29;26.00;;;14.43;;
42948;SDS011;28587;46.794;23.594;2022-10-16T09:00:30;20.70;;;13.95;;
42948;SDS011;28587;46.794;23.594;2022-10-16T09:05:49;19.70;;;13.55;;
42948;SDS011;28587;46.794;23.594;2022-10-16T09:11:14;20.85;;;12.98;;
42948;SDS011;28587;46.794;23.594;2022-10-16T09:16:36;18.92;;;13.70;;
42948;SDS011;28587;46.794;23.594;2022-10-16T09:21:46;22.25;;;13.05;;
42948;SDS011;28587;46.794;23.594;2022-10-16T09:26:48;18.52;;;13.43;;
42948;SDS011;28587;46.794;23.594;2022-10-16T09:31:49;16.92;;;13.05;;
42948;SDS011;28587;46.794;23.594;2022-10-16T09:36:51;18.67;;;13.18;;
42948;SDS011;28587;46.794;23.594;2022-10-16T09:41:52;16.38;;;13.25;;
42948;SDS011;28587;46.794;23.594;2022-10-16T09:47:03;21.30;;;12.32;;
42948;SDS011;28587;46.794;23.594;2022-10-16T09:52:20;17.25;;;12.35;;
42948;SDS011;28587;46.794;23.594;2022-10-16T09:57:21;23.00;;;14.15;;
42948;SDS011;28587;46.794;23.594;2022-10-16T10:02:35;18.00;;;14.68;;
42948;SDS011;28587;46.794;23.594;2022-10-16T10:07:42;19.90;;;14.07;;
42948;SDS011;28587;46.794;23.594;2022-10-16T10:12:46;23.95;;;14.68;;
42948;SDS011;28587;46.794;23.594;2022-10-16T10:17:47;20.15;;;14.43;;
42948;SDS011;28587;46.794;23.594;2022-10-16T10:22:49;26.20;;;15.68;;
42948;SDS011;28587;46.794;23.594;2022-10-16T10:39:00;19.77;;;12.82;;
42948;SDS011;28587;46.794;23.594;2022-10-16T10:44:01;20.58;;;13.20;;
42948;SDS011;28587;46.794;23.594;2022-10-16T10:49:29;25.23;;;14.35;;
42948;SDS011;28587;46.794;23.594;2022-10-16T10:54:41;16.40;;;11.82;;
42948;SDS011;28587;46.794;23.594;2022-10-16T11:11:00;13.35;;;11.35;;
42948;SDS011;28587;46.794;23.594;2022-10-16T11:16:08;16.25;;;10.85;;
42948;SDS011;28587;46.794;23.594;2022-10-16T11:21:34;14.05;;;10.32;;
42948;SDS011;28587;46.794;23.594;2022-10-16T11:26:42;13.80;;;10.23;;
42948;SDS011;28587;46.794;23.594;2022-10-16T11:31:46;12.60;;;9.95;;
42948;SDS011;28587;46.794;23.594;2022-10-16T11:42:09;15.45;;;13.70;;
42948;SDS011;28587;46.794;23.594;2022-10-16T11:52:40;16.30;;;14.63;;
42948;SDS011;28587;46.794;23.594;2022-10-16T11:58:01;12.57;;;11.30;;
42948;SDS011;28587;46.794;23.594;2022-10-16T12:08:18;12.13;;;10.20;;
42948;SDS011;28587;46.794;23.594;2022-10-16T12:13:39;9.63;;;8.35;;
42948;SDS011;28587;46.794;23.594;2022-10-16T12:18:41;9.02;;;8.07;;
42948;SDS011;28587;46.794;23.594;2022-10-16T12:23:48;10.10;;;7.68;;
42948;SDS011;28587;46.794;23.594;2022-10-16T12:28:51;8.73;;;7.35;;
42948;SDS011;28587;46.794;23.594;2022-10-16T12:33:58;7.85;;;6.95;;
42948;SDS011;28587;46.794;23.594;2022-10-16T12:39:02;8.32;;;7.15;;
42948;SDS011;28587;46.794;23.594;2022-10-16T12:44:03;7.53;;;6.80;;
42948;SDS011;28587;46.794;23.594;2022-10-16T12:49:19;7.65;;;6.85;;
42948;SDS011;28587;46.794;23.594;2022-10-16T12:54:38;6.65;;;6.00;;
42948;SDS011;28587;46.794;23.594;2022-10-16T13:05:03;6.35;;;5.75;;
42948;SDS011;28587;46.794;23.594;2022-10-16T13:10:13;6.78;;;6.18;;
42948;SDS011;28587;46.794;23.594;2022-10-16T13:15:33;7.32;;;6.30;;
42948;SDS011;28587;46.794;23.594;2022-10-16T13:26:17;6.78;;;6.18;;
42948;SDS011;28587;46.794;23.594;2022-10-16T13:31:22;7.18;;;6.47;;
42948;SDS011;28587;46.794;23.594;2022-10-16T13:36:34;6.60;;;5.97;;
42948;SDS011;28587;46.794;23.594;2022-10-16T13:41:43;7.07;;;6.47;;
42948;SDS011;28587;46.794;23.594;2022-10-16T13:46:45;6.35;;;5.75;;
42948;SDS011;28587;46.794;23.594;2022-10-16T13:51:56;6.45;;;5.90;;
42948;SDS011;28587;46.794;23.594;2022-10-16T13:57:04;6.82;;;6.05;;
42948;SDS011;28587;46.794;23.594;2022-10-16T14:02:25;6.70;;;6.10;;
42948;SDS011;28587;46.794;23.594;2022-10-16T14:07:31;6.20;;;5.70;;
42948;SDS011;28587;46.794;23.594;2022-10-16T14:12:33;6.30;;;5.70;;
42948;SDS011;28587;46.794;23.594;2022-10-16T14:17:35;5.70;;;5.15;;
42948;SDS011;28587;46.794;23.594;2022-10-16T14:22:37;6.40;;;5.80;;
42948;SDS011;28587;46.794;23.594;2022-10-16T14:27:43;6.28;;;5.60;;
42948;SDS011;28587;46.794;23.594;2022-10-16T14:32:57;6.10;;;5.50;;
42948;SDS011;28587;46.794;23.594;2022-10-16T14:38:00;6.63;;;6.03;;
42948;SDS011;28587;46.794;23.594;2022-10-16T14:43:03;6.18;;;5.68;;
42948;SDS011;28587;46.794;23.594;2022-10-16T14:48:06;5.35;;;4.85;;
42948;SDS011;28587;46.794;23.594;2022-10-16T14:53:17;5.72;;;5.22;;
42948;SDS011;28587;46.794;23.594;2022-10-16T14:58:19;6.40;;;5.80;;
42948;SDS011;28587;46.794;23.594;2022-10-16T15:03:22;5.95;;;5.35;;
42948;SDS011;28587;46.794;23.594;2022-10-16T15:08:23;5.60;;;5.05;;
42948;SDS011;28587;46.794;23.594;2022-10-16T15:13:24;5.78;;;5.28;;
42948;SDS011;28587;46.794;23.594;2022-10-16T15:18:25;6.35;;;5.10;;
42948;SDS011;28587;46.794;23.594;2022-10-16T15:23:26;5.57;;;5.07;;
42948;SDS011;28587;46.794;23.594;2022-10-16T15:28:27;7.72;;;5.60;;
42948;SDS011;28587;46.794;23.594;2022-10-16T15:33:28;5.63;;;5.13;;
42948;SDS011;28587;46.794;23.594;2022-10-16T15:38:32;6.28;;;5.03;;
42948;SDS011;28587;46.794;23.594;2022-10-16T15:43:33;6.35;;;5.10;;
42948;SDS011;28587;46.794;23.594;2022-10-16T15:48:34;8.50;;;5.70;;
42948;SDS011;28587;46.794;23.594;2022-10-16T15:53:36;9.07;;;5.55;;
42948;SDS011;28587;46.794;23.594;2022-10-16T15:58:37;10.80;;;7.05;;
42948;SDS011;28587;46.794;23.594;2022-10-16T16:03:39;13.55;;;9.50;;
42948;SDS011;28587;46.794;23.594;2022-10-16T16:08:40;15.00;;;10.38;;
42948;SDS011;28587;46.794;23.594;2022-10-16T16:13:41;154.90;;;91.70;;
42948;SDS011;28587;46.794;23.594;2022-10-16T16:18:43;575.80;;;382.83;;
42948;SDS011;28587;46.794;23.594;2022-10-16T16:23:44;328.55;;;196.82;;
42948;SDS011;28587;46.794;23.594;2022-10-16T16:28:45;195.15;;;116.65;;
42948;SDS011;28587;46.794;23.594;2022-10-16T16:33:45;165.73;;;95.85;;
42948;SDS011;28587;46.794;23.594;2022-10-16T16:38:46;149.32;;;86.38;;
42948;SDS011;28587;46.794;23.594;2022-10-16T16:43:47;142.43;;;83.70;;
42948;SDS011;28587;46.794;23.594;2022-10-16T16:48:48;127.35;;;80.43;;
42948;SDS011;28587;46.794;23.594;2022-10-16T16:53:51;124.00;;;77.10;;
42948;SDS011;28587;46.794;23.594;2022-10-16T16:58:54;119.07;;;69.50;;
42948;SDS011;28587;46.794;23.594;2022-10-16T17:03:56;97.03;;;60.35;;
42948;SDS011;28587;46.794;23.594;2022-10-16T17:08:58;80.00;;;52.88;;
42948;SDS011;28587;46.794;23.594;2022-10-16T17:14:02;77.40;;;50.50;;
42948;SDS011;28587;46.794;23.594;2022-10-16T17:19:07;75.47;;;50.78;;
42948;SDS011;28587;46.794;23.594;2022-10-16T17:24:10;84.22;;;57.13;;
42948;SDS011;28587;46.794;23.594;2022-10-16T17:29:11;100.97;;;66.68;;
42948;SDS011;28587;46.794;23.594;2022-10-16T17:34:12;79.93;;;51.70;;
42948;SDS011;28587;46.794;23.594;2022-10-16T17:39:14;68.90;;;45.90;;
42948;SDS011;28587;46.794;23.594;2022-10-16T17:44:17;72.13;;;45.20;;
42948;SDS011;28587;46.794;23.594;2022-10-16T17:49:20;63.15;;;44.03;;
42948;SDS011;28587;46.794;23.594;2022-10-16T17:54:21;57.85;;;40.42;;
42948;SDS011;28587;46.794;23.594;2022-10-16T17:59:22;62.33;;;40.03;;
42948;SDS011;28587;46.794;23.594;2022-10-16T18:04:23;50.88;;;37.05;;
42948;SDS011;28587;46.794;23.594;2022-10-16T18:09:24;52.10;;;36.85;;
42948;SDS011;28587;46.794;23.594;2022-10-16T18:14:26;49.75;;;35.78;;
42948;SDS011;28587;46.794;23.594;2022-10-16T18:19:28;50.53;;;34.00;;
42948;SDS011;28587;46.794;23.594;2022-10-16T18:24:29;47.08;;;32.53;;
42948;SDS011;28587;46.794;23.594;2022-10-16T18:29:30;42.85;;;32.85;;
42948;SDS011;28587;46.794;23.594;2022-10-16T18:34:32;53.78;;;34.63;;
42948;SDS011;28587;46.794;23.594;2022-10-16T18:39:36;53.53;;;35.63;;
42948;SDS011;28587;46.794;23.594;2022-10-16T18:44:37;52.55;;;32.92;;
42948;SDS011;28587;46.794;23.594;2022-10-16T18:49:38;55.40;;;32.55;;
42948;SDS011;28587;46.794;23.594;2022-10-16T18:54:39;43.63;;;31.55;;
42948;SDS011;28587;46.794;23.594;2022-10-16T18:59:39;43.22;;;30.50;;
42948;SDS011;28587;46.794;23.594;2022-10-16T19:04:41;48.80;;;31.75;;
42948;SDS011;28587;46.794;23.594;2022-10-16T19:09:42;46.67;;;30.13;;
42948;SDS011;28587;46.794;23.594;2022-10-16T19:14:43;43.38;;;30.35;;
42948;SDS011;28587;46.794;23.594;2022-10-16T19:19:44;41.15;;;28.67;;
42948;SDS011;28587;46.794;23.594;2022-10-16T19:24:45;41.30;;;27.13;;
42948;SDS011;28587;46.794;23.594;2022-10-16T19:29:45;35.42;;;25.35;;
42948;SDS011;28587;46.794;23.594;2022-10-16T19:34:48;35.85;;;27.10;;
42948;SDS011;28587;46.794;23.594;2022-10-16T19:39:50;45.38;;;37.42;;
42948;SDS011;28587;46.794;23.594;2022-10-16T19:44:51;45.08;;;34.17;;
42948;SDS011;28587;46.794;23.594;2022-10-16T19:49:52;31.45;;;26.33;;
42948;SDS011;28587;46.794;23.594;2022-10-16T19:54:53;31.75;;;23.08;;
42948;SDS011;28587;46.794;23.594;2022-10-16T19:59:57;30.65;;;23.17;;
42948;SDS011;28587;46.794;23.594;2022-10-16T20:04:57;31.27;;;21.58;;
42948;SDS011;28587;46.794;23.594;2022-10-16T20:09:58;30.83;;;21.77;;
42948;SDS011;28587;46.794;23.594;2022-10-16T20:14:59;27.38;;;21.25;;
42948;SDS011;28587;46.794;23.594;2022-10-16T20:20:01;25.40;;;19.58;;
42948;SDS011;28587;46.794;23.594;2022-10-16T20:25:03;25.20;;;19.90;;
42948;SDS011;28587;46.794;23.594;2022-10-16T20:30:04;22.60;;;18.77;;
42948;SDS011;28587;46.794;23.594;2022-10-16T20:35:05;24.80;;;20.05;;
42948;SDS011;28587;46.794;23.594;2022-10-16T20:40:06;23.85;;;19.33;;
42948;SDS011;28587;46.794;23.594;2022-10-16T20:45:08;23.33;;;18.40;;
42948;SDS011;28587;46.794;23.594;2022-10-16T20:50:09;23.52;;;18.90;;
42948;SDS011;28587;46.794;23.594;2022-10-16T20:55:11;24.73;;;19.27;;
42948;SDS011;28587;46.794;23.594;2022-10-16T21:00:12;25.80;;;19.38;;
42948;SDS011;28587;46.794;23.594;2022-10-16T21:05:13;23.48;;;18.17;;
42948;SDS011;28587;46.794;23.594;2022-10-16T21:10:14;22.77;;;18.45;;
42948;SDS011;28587;46.794;23.594;2022-10-16T21:15:15;20.83;;;17.20;;
42948;SDS011;28587;46.794;23.594;2022-10-16T21:20:17;20.85;;;17.20;;
42948;SDS011;28587;46.794;23.594;2022-10-16T21:25:18;19.83;;;16.67;;
42948;SDS011;28587;46.794;23.594;2022-10-16T21:30:19;20.13;;;16.63;;
42948;SDS011;28587;46.794;23.594;2022-10-16T21:35:19;21.67;;;16.67;;
42948;SDS011;28587;46.794;23.594;2022-10-16T21:40:20;19.55;;;16.15;;
42948;SDS011;28587;46.794;23.594;2022-10-16T21:45:21;19.95;;;16.25;;
42948;SDS011;28587;46.794;23.594;2022-10-16T21:50:22;20.00;;;16.90;;
42948;SDS011;28587;46.794;23.594;2022-10-16T21:55:23;18.70;;;16.42;;
42948;SDS011;28587;46.794;23.594;2022-10-16T22:00:24;17.88;;;16.00;;
42948;SDS011;28587;46.794;23.594;2022-10-16T22:05:25;19.02;;;15.70;;
42948;SDS011;28587;46.794;23.594;2022-10-16T22:10:26;17.27;;;15.30;;
42948;SDS011;28587;46.794;23.594;2022-10-16T22:15:27;17.05;;;15.07;;
42948;SDS011;28587;46.794;23.594;2022-10-16T22:20:28;16.25;;;14.65;;
42948;SDS011;28587;46.794;23.594;2022-10-16T22:25:29;18.48;;;14.52;;
42948;SDS011;28587;46.794;23.594;2022-10-16T22:30:36;18.33;;;14.73;;
42948;SDS011;28587;46.794;23.594;2022-10-16T22:35:38;16.88;;;14.13;;
42948;SDS011;28587;46.794;23.594;2022-10-16T22:40:39;17.23;;;14.25;;
42948;SDS011;28587;46.794;23.594;2022-10-16T22:45:40;16.35;;;14.02;;
42948;SDS011;28587;46.794;23.594;2022-10-16T22:50:41;16.73;;;14.60;;
42948;SDS011;28587;46.794;23.594;2022-10-16T22:55:43;14.90;;;13.48;;
42948;SDS011;28587;46.794;23.594;2022-10-16T23:00:43;14.93;;;13.35;;
42948;SDS011;28587;46.794;23.594;2022-10-16T23:05:44;14.82;;;13.23;;
42948;SDS011;28587;46.794;23.594;2022-10-16T23:10:46;15.93;;;14.25;;
42948;SDS011;28587;46.794;23.594;2022-10-16T23:15:47;15.48;;;13.55;;
42948;SDS011;28587;46.794;23.594;2022-10-16T23:20:48;14.02;;;12.50;;
42948;SDS011;28587;46.794;23.594;2022-10-16T23:25:48;14.43;;;12.77;;
42948;SDS011;28587;46.794;23.594;2022-10-16T23:30:49;15.50;;;13.00;;
42948;SDS011;28587;46.794;23.594;2022-10-16T23:35:50;13.55;;;11.90;;
42948;SDS011;28587;46.794;23.594;2022-10-16T23:40:51;15.90;;;12.75;;
42948;SDS011;28587;46.794;23.594;2022-10-16T23:45:52;14.98;;;12.95;;
42948;SDS011;28587;46.794;23.594;2022-10-16T23:50:53;15.40;;;12.90;;
42948;SDS011;28587;46.794;23.594;2022-10-16T23:55:55;13.73;;;12.35;;
